»·PEaware :: N800DW MMPE-KSMO

N800DW :: MMPE-KSMO

FLIGHT INFORMATION

Flight Status: Arrived
Operator: Privately registered:
United States
More flights under this callsign
Pilot: Scott L. (17677)
Aircraft: Unknown
(PIPA)
More flights by this aircraft type
Origin: MMPE Punta Penasco
Mexico
Destination: KSMO Santa Monica Mun
United States
More flights between these airports :: More routes between these airports
Route: +PPE V41 MXL V137 IPL V458 OCN V23 DANAH V363 BAYJY V186 DARTS
File this flight plan on PilotEdge
Remarks:
Altitude:
(Current/Filed)
12,000ft
Speed:
(Current/Filed)
190kts
Departed: 17-Jul-18 07:05 AM
Arrived: 17-Jul-18 08:56 AM
Distance/Time
Traveled:
295nm/1:51
Distance/Time
To Go:
Arrived

Flight Plot

Page will automatically refresh every two minutes.

Flight plan parsing failed; only flown route is shown


Map Options




Map Legend


Flown Route
Filed Route
Departure Airport
Arrival Airport
Navaid (VOR, NDB)
Fix

Horizontal Profiles

Position Reports

Time Latitude Longitude Heading Altitude Ground
Speed
17-Jul-18 07:05 31.361318 -113.380720 87 3132ft 163kts
17-Jul-18 07:06 31.365166 -113.328317 87 4014ft 165kts
17-Jul-18 07:07 31.395562 -113.318287 296 4923ft 166kts
17-Jul-18 07:08 31.419147 -113.364812 301 5820ft 166kts
17-Jul-18 07:09 31.444969 -113.409840 304 6719ft 166kts
17-Jul-18 07:10 31.471730 -113.453494 306 7619ft 164kts
17-Jul-18 07:11 31.498739 -113.495987 307 8520ft 161kts
17-Jul-18 07:12 31.525524 -113.537301 308 9421ft 157kts
17-Jul-18 07:13 31.551555 -113.577027 308 10315ft 152kts
17-Jul-18 07:14 31.576904 -113.615527 309 11212ft 147kts
17-Jul-18 07:15 31.601286 -113.652445 308 11926ft 153kts
17-Jul-18 07:16 31.630496 -113.696597 308 11929ft 187kts
17-Jul-18 07:17 31.663404 -113.746354 308 11921ft 198kts
17-Jul-18 07:18 31.697454 -113.797876 308 11917ft 201kts
17-Jul-18 07:19 31.731898 -113.850050 308 11917ft 202kts
17-Jul-18 07:20 31.765975 -113.901731 308 11917ft 203kts
17-Jul-18 07:21 31.800533 -113.954210 308 11917ft 203kts
17-Jul-18 07:22 31.835196 -114.006920 308 11918ft 205kts
17-Jul-18 07:23 31.870147 -114.060140 308 11917ft 206kts
17-Jul-18 07:24 31.904962 -114.113227 308 11918ft 206kts
17-Jul-18 07:25 31.939881 -114.166544 308 11918ft 206kts
17-Jul-18 07:26 31.974890 -114.220078 308 11918ft 206kts
17-Jul-18 07:27 32.009989 -114.273822 308 11918ft 207kts
17-Jul-18 07:28 32.045073 -114.327620 308 11918ft 207kts
17-Jul-18 07:29 32.080042 -114.381320 308 11918ft 207kts
17-Jul-18 07:30 32.114982 -114.435045 308 11918ft 207kts
17-Jul-18 07:31 32.145531 -114.482079 308 11918ft 207kts
17-Jul-18 07:32 32.180432 -114.535885 308 11918ft 207kts
17-Jul-18 07:33 32.215416 -114.589899 308 11918ft 207kts
17-Jul-18 07:34 32.250215 -114.643705 308 11918ft 207kts
17-Jul-18 07:35 32.282683 -114.693979 307 11916ft 206kts
17-Jul-18 07:36 32.317468 -114.747917 307 11917ft 206kts
17-Jul-18 07:37 32.352073 -114.801647 307 11919ft 206kts
17-Jul-18 07:38 32.381050 -114.846698 307 11921ft 206kts
17-Jul-18 07:39 32.414427 -114.898657 307 11923ft 206kts
17-Jul-18 07:40 32.448613 -114.951949 307 11926ft 206kts
17-Jul-18 07:41 32.488641 -115.014450 307 11926ft 206kts
17-Jul-18 07:42 32.517267 -115.059205 308 11926ft 205kts
17-Jul-18 07:43 32.551324 -115.112521 308 11926ft 204kts
17-Jul-18 07:44 32.565814 -115.135228 308 11926ft 204kts
17-Jul-18 07:45 32.565814 -115.135228 308 11926ft 204kts
17-Jul-18 07:46 32.565814 -115.135228 308 11926ft 204kts
17-Jul-18 07:47 32.565814 -115.135228 308 11926ft 204kts
17-Jul-18 07:48 32.575800 -115.150884 307 11926ft 204kts
17-Jul-18 07:49 32.609371 -115.203563 307 11926ft 203kts
17-Jul-18 07:50 32.639549 -115.258623 298 11927ft 203kts
17-Jul-18 07:51 32.663592 -115.313062 298 11924ft 203kts
17-Jul-18 07:52 32.689501 -115.372209 298 11916ft 203kts
17-Jul-18 07:53 32.715368 -115.431568 298 11904ft 203kts
17-Jul-18 07:54 32.741206 -115.491053 298 11893ft 203kts
17-Jul-18 07:55 32.748934 -115.556621 272 11890ft 204kts
17-Jul-18 07:56 32.751250 -115.623875 272 11890ft 204kts
17-Jul-18 07:57 32.753072 -115.686744 272 11898ft 203kts
17-Jul-18 07:58 32.754861 -115.753253 272 11908ft 203kts
17-Jul-18 07:59 32.756554 -115.820081 272 11908ft 204kts
17-Jul-18 08:00 32.758169 -115.887090 272 11908ft 204kts
17-Jul-18 08:01 32.759720 -115.953742 272 11908ft 204kts
17-Jul-18 08:02 32.761233 -116.020748 272 11908ft 204kts
17-Jul-18 08:03 32.782788 -116.078793 310 11908ft 200kts
17-Jul-18 08:04 32.817878 -116.129877 311 11908ft 200kts
17-Jul-18 08:05 32.853463 -116.180702 311 11916ft 200kts
17-Jul-18 08:06 32.888935 -116.230929 311 11944ft 199kts
17-Jul-18 08:07 32.924342 -116.280884 311 11973ft 198kts
17-Jul-18 08:08 32.959753 -116.330791 311 12002ft 197kts
17-Jul-18 08:09 32.995006 -116.380501 312 12030ft 196kts
17-Jul-18 08:10 33.029950 -116.429804 312 12045ft 196kts
17-Jul-18 08:11 33.064627 -116.478773 312 12045ft 196kts
17-Jul-18 08:12 33.099621 -116.528243 312 12045ft 196kts
17-Jul-18 08:13 33.128684 -116.569363 313 12037ft 196kts
17-Jul-18 08:14 33.144635 -116.631793 282 11981ft 202kts
17-Jul-18 08:15 33.152683 -116.691452 281 11981ft 201kts
17-Jul-18 08:16 33.159869 -116.747137 280 11981ft 201kts
17-Jul-18 08:17 33.168131 -116.812943 280 11982ft 200kts
17-Jul-18 08:18 33.176246 -116.878714 280 11982ft 200kts
17-Jul-18 08:19 33.183665 -116.939273 279 11978ft 201kts
17-Jul-18 08:20 33.191564 -117.004342 279 11973ft 200kts
17-Jul-18 08:21 33.199355 -117.069055 278 11968ft 200kts
17-Jul-18 08:22 33.207172 -117.134424 278 11963ft 199kts
17-Jul-18 08:23 33.214862 -117.199171 278 11963ft 198kts
17-Jul-18 08:24 33.222200 -117.261181 278 11963ft 198kts
17-Jul-18 08:25 33.229783 -117.325504 278 11963ft 198kts
17-Jul-18 08:26 33.237319 -117.389698 278 11964ft 198kts
17-Jul-18 08:27 33.267664 -117.446165 315 11214ft 218kts
17-Jul-18 08:28 33.310613 -117.497829 315 10427ft 223kts
17-Jul-18 08:29 33.354438 -117.549699 316 9634ft 223kts
17-Jul-18 08:30 33.399478 -117.602639 316 8559ft 230kts
17-Jul-18 08:31 33.443268 -117.654012 315 7994ft 214kts
17-Jul-18 08:32 33.484767 -117.699986 339 7973ft 202kts
17-Jul-18 08:33 33.538873 -117.708932 352 7985ft 196kts
17-Jul-18 08:34 33.592278 -117.717477 352 7982ft 193kts
17-Jul-18 08:35 33.643692 -117.725907 351 7976ft 193kts
17-Jul-18 08:36 33.695502 -117.741275 339 7971ft 193kts
17-Jul-18 08:37 33.745654 -117.764390 338 7968ft 193kts
17-Jul-18 08:38 33.796911 -117.780040 358 7970ft 193kts
17-Jul-18 08:39 33.850322 -117.781723 358 7970ft 193kts
17-Jul-18 08:40 33.907033 -117.783192 358 7082ft 218kts
17-Jul-18 08:41 33.968561 -117.784623 358 6032ft 221kts
17-Jul-18 08:42 34.014731 -117.807690 290 6003ft 198kts
17-Jul-18 08:43 34.033176 -117.868155 290 6010ft 193kts
17-Jul-18 08:44 34.051585 -117.928233 290 5889ft 198kts
17-Jul-18 08:45 34.071432 -117.992638 289 5204ft 212kts
17-Jul-18 08:46 34.091338 -118.057597 289 4987ft 201kts
17-Jul-18 08:47 34.109314 -118.116364 289 4983ft 197kts
17-Jul-18 08:48 34.128207 -118.178271 289 4983ft 198kts
17-Jul-18 08:49 34.147171 -118.240474 289 4214ft 179kts
17-Jul-18 08:50 34.141607 -118.287261 231 3544ft 132kts
17-Jul-18 08:51 34.124040 -118.317627 231 3040ft 113kts
17-Jul-18 08:52 34.104203 -118.348309 227 2438ft 94kts
17-Jul-18 08:53 34.086859 -118.366885 225 2010ft 81kts
17-Jul-18 08:54 34.067685 -118.388023 218 1861ft 110kts
17-Jul-18 08:55 34.045683 -118.416500 222 1000ft 100kts
17-Jul-18 08:56 34.028272 -118.436696 223 458ft 88kts
17-Jul-18 08:57 34.015524 -118.451644 224 136ft 27kts
17-Jul-18 08:58 34.012944 -118.452655 68 136ft 7kts
17-Jul-18 08:59 34.013121 -118.452506 309 136ft 0kts
17-Jul-18 09:00 34.013121 -118.452506 309 136ft 0kts
17-Jul-18 09:01 34.013121 -118.452506 309 136ft 0kts
17-Jul-18 09:02 34.013121 -118.452506 309 136ft 0kts
17-Jul-18 09:03 34.013121 -118.452506 309 136ft 0kts
17-Jul-18 09:04 34.013121 -118.452506 309 136ft 0kts
17-Jul-18 09:05 34.013121 -118.452506 309 136ft 0kts
17-Jul-18 09:06 31.356131 -113.525909 360 29ft 0kts
17-Jul-18 09:07 31.356131 -113.525909 360 29ft 0kts
17-Jul-18 09:08 31.356131 -113.525909 360 29ft 0kts
17-Jul-18 09:09 31.356131 -113.525909 360 29ft 0kts
17-Jul-18 09:10 31.356131 -113.525909 360 29ft 0kts
17-Jul-18 09:11 34.015841 -118.449859 315 136ft 0kts

Navigation Log

Ident Type
Flight plan parsing failed, navigation log unavailable